Marin Sunshine — WDE5919 — position and weather

sailwx.info

Track history (hours):
 
Tides and Currents Weather Stations Pressure Air Temp Water Temp Dewpoint Dewpoint Depression Visibility Wind Speed Wind Dir Waves Ship Positions

Marin Sunshine

Owner: Marine Express, alameda, CA. More information available from US FCC via Universal Licensing System and Coast Guard Vessel Documentation Center.

Last reported at 2016-Dec-27 00:33 UTC. Time now 2017-Jan-19 08:50 UTC.
Position N 37°47' W 122°17'.
Warning: this ship's position is 23 days out of date.

MMSI: 367373280.

Date/timePositionNaut miles runAvg speedWind from/ knotsBaromVisibWave heightAir tempDewpointWater temp
2016-Dec-27 00:33N 37°47' W 122°17'9 9.2
2016-Dec-26 23:34N 37°54' W 122°25'1111.2
2016-Dec-26 22:33N 38°03' W 122°17'43 2.0
2016-Dec-26 00:20N 37°58' W 121°22'2 2.0
2016-Dec-25 23:33N 37°57' W 121°20'0 0.4
2016-Dec-25 22:33N 37°57' W 121°21'1 1.2
2016-Dec-25 21:33N 37°58' W 121°22'0 0.0
2016-Dec-24 16:20N 37°58' W 121°22'2 2.0
2016-Dec-24 15:33N 37°57' W 121°20'2 0.0
2016-Dec-23 08:17N 37°58' W 121°22'0 0.3
2016-Dec-23 07:33N 37°58' W 121°22'0 0.2
2016-Dec-23 06:33N 37°58' W 121°22'2 0.1
2016-Dec-22 01:08N 37°57' W 121°20'1 1.6
2016-Dec-22 00:33N 37°57' W 121°21'1 0.7
2016-Dec-21 23:34N 37°58' W 121°22'0 0.0
2016-Dec-20 18:09N 37°58' W 121°22'0 0.4
2016-Dec-20 17:33N 37°58' W 121°22'2 2.0
2016-Dec-20 16:33N 37°57' W 121°19'3 2.5
2016-Dec-20 15:33N 37°58' W 121°22'0 0.3
2016-Dec-20 14:33N 37°58' W 121°22'  
2016-Dec-17 05:33N 37°57' W 121°20'0 0.1
2016-Dec-17 04:33N 37°57' W 121°20'1 0.6
2016-Dec-17 03:33N 37°57' W 121°21'1 1.0
2016-Dec-17 02:33N 37°58' W 121°22'  
Track history (hours):
 
Tides and Currents Weather Stations Pressure Air Temp Water Temp Dewpoint Dewpoint Depression Visibility Wind Speed Wind Dir Waves Ship Positions

Marin Sunshine

Owner: Marine Express, alameda, CA. More information available from US FCC via Universal Licensing System and Coast Guard Vessel Documentation Center.

Last reported at 2016-Dec-27 00:33 UTC. Time now 2017-Jan-19 08:50 UTC.
Position N 37°47' W 122°17'.
Warning: this ship's position is 23 days out of date.

MMSI: 367373280.

Date/timePositionNaut miles runAvg speedWind from/ knotsBaromVisibWave heightAir tempDewpointWater temp
2016-Dec-27 00:33N 37°47' W 122°17'9 9.2
2016-Dec-26 23:34N 37°54' W 122°25'1111.2
2016-Dec-26 22:33N 38°03' W 122°17'43 2.0
2016-Dec-26 00:20N 37°58' W 121°22'2 2.0
2016-Dec-25 23:33N 37°57' W 121°20'0 0.4
2016-Dec-25 22:33N 37°57' W 121°21'1 1.2
2016-Dec-25 21:33N 37°58' W 121°22'0 0.0
2016-Dec-24 16:20N 37°58' W 121°22'2 2.0
2016-Dec-24 15:33N 37°57' W 121°20'2 0.0
2016-Dec-23 08:17N 37°58' W 121°22'0 0.3
2016-Dec-23 07:33N 37°58' W 121°22'0 0.2
2016-Dec-23 06:33N 37°58' W 121°22'2 0.1
2016-Dec-22 01:08N 37°57' W 121°20'1 1.6
2016-Dec-22 00:33N 37°57' W 121°21'1 0.7
2016-Dec-21 23:34N 37°58' W 121°22'0 0.0
2016-Dec-20 18:09N 37°58' W 121°22'0 0.4
2016-Dec-20 17:33N 37°58' W 121°22'2 2.0
2016-Dec-20 16:33N 37°57' W 121°19'3 2.5
2016-Dec-20 15:33N 37°58' W 121°22'0 0.3
2016-Dec-20 14:33N 37°58' W 121°22'  
2016-Dec-17 05:33N 37°57' W 121°20'0 0.1
2016-Dec-17 04:33N 37°57' W 121°20'1 0.6
2016-Dec-17 03:33N 37°57' W 121°21'1 1.0
2016-Dec-17 02:33N 37°58' W 121°22'  

Dump ship's entire track history